Melbourne, Victoria

11:40 PM AEST on April 27, 2015 (GMT +1000)
Middle Park | | Change Station
CLOSE
Current Station
Personal Weather Station
Location: Middle Park, VICTORIA
Elevation: 26 ft
Nearby Weather Stations

Elev 26 ft 37.85 °S, 144.96 °E | Updated 28 minutes ago

Mostly Cloudy
Mostly Cloudy
53.4 °F
Feels Like 53.4 °F
N
7.8
Wind Variable Wind from West

Today
High -- | Low -- °F
--% Chance of Precip.
Yesterday
High -- | Low -- °F
Precip. -- in
6:56 AM 5:38 PM
Waxing Gibbous, 65% visible
Pressure 30.30 in
Visibility 6.2 miles
Clouds Few 2700 ft
Scattered Clouds 4600 ft
Mostly Cloudy 6200 ft
Dew Point 47 °F
Humidity 78%
Rainfall in
Snow Depth Not available.
UV 0 out of 12
Pollen Not available.
Air Quality Not available.
Flu Activity Not available.
METAR YMML 271300Z 25008KT 9999 FEW027 SCT046 BKN062 11/08 Q1026 NOSIG

More Conditions Fewer Conditions

Pressure 30.30 in
Visibility 6.2 miles
Clouds Few 2700 ft
Scattered Clouds 4600 ft
Mostly Cloudy 6200 ft
Dew Point 47 °F
Humidity 78%
Rainfall in
Snow Depth Not available.
UV 0 out of 12
Pollen Not available.
Air Quality Not available.
Flu Activity Not available.
METAR YMML 271300Z 25008KT 9999 FEW027 SCT046 BKN062 11/08 Q1026 NOSIG

More Conditions Fewer Conditions

10-Day Weather Forecast

Almanac

Astronomy

Apr. 27, 2015 Rise Set
Actual Time
Civil Twilight
Nautical Twilight
Astronomical Twilight
Moon
Length of Visible Light
Length of Day
Tomorrow will be .
, % of the Moon is Illuminated

Today's Extremes

Country Highs Country Lows

Community

WunderPhotos

Upload Photos

1,817,309 photos uploaded!

WunderBlogs® & News

Nearby

Air Quality

  Air Quality AQ Index Pollutant
Not available.

Snow Depth

Station Depth Elevation

Earthquake Activity

City Distance Mag. Time & Date
Minimum magnitude displayed is 2.5.

Coastal Water Temperatures

Place Temperature

Stations

Nearby Weather Stations

Station Location Temp. Windchill Dew Point Humidity Wind Precip. Elev Updated Type